Date,TemperatureHighF,TemperatureAvgF,TemperatureLowF,DewpointHighF,DewpointAvgF,DewpointLowF,HumidityHigh,HumidityAvg,HumidityLow,PressureMaxIn,PressureMinIn,WindSpeedMaxMPH,WindSpeedAvgMPH,GustSpeedMaxMPH,PrecipitationSumIn
2014-1-1,58.0,31.7,26.0,19.0,11.2,8.0,53,43,22,0.00,40.00,3,1,6,0.00
2014-1-2,63.0,36.8,23.0,26.0,16.0,13.0,65,46,18,0.00,40.00,4,1,9,0.00
2014-1-3,60.0,39.2,27.0,22.0,17.0,13.0,68,44,20,0.00,40.00,6,2,13,0.00
2014-1-4,61.0,37.8,28.0,26.0,14.3,-99.9,57,42,22,0.00,40.00,7,2,15,0.00
2014-1-5,51.0,29.1,21.0,6.0,0.1,-4.0,40,30,11,0.00,40.00,4,1,7,0.00
2014-1-6,56.0,27.8,19.0,6.0,0.7,-2.0,41,31,12,0.00,40.00,3,1,12,0.00
2014-1-7,54.0,37.6,26.0,16.0,8.0,-1.0,49,31,10,0.00,40.00,4,1,12,0.00
2014-1-8,61.0,40.3,28.0,12.0,7.3,3.0,46,27,12,0.00,40.00,7,2,12,0.00
2014-1-9,43.0,29.6,23.0,13.0,8.3,4.0,46,41,24,0.00,40.00,3,0,7,0.00
2014-1-10,64.0,43.6,33.0,22.0,17.5,14.0,47,36,14,0.00,40.00,4,2,11,0.00
2014-1-11,63.0,42.8,30.0,21.0,12.8,-99.9,46,32,14,0.00,40.00,7,2,18,0.00
2014-1-12,51.0,38.4,28.0,23.0,11.6,2.0,59,34,21,0.00,40.00,2,0,10,0.00
2014-1-13,46.0,33.4,29.0,11.0,4.8,-6.0,35,30,16,0.00,40.00,3,0,10,0.00
2014-1-14,48.0,40.1,37.0,7.0,3.7,1.0,27,22,15,0.00,40.00,6,1,15,0.00
2014-1-15,60.0,36.1,27.0,15.0,6.4,-2.0,43,30,16,0.00,40.00,5,1,11,0.00
2014-1-16,48.0,33.8,27.0,6.0,2.6,-1.0,36,27,15,0.00,40.00,4,1,12,0.00
2014-1-17,53.0,30.8,25.0,3.0,-1.5,-7.0,32,25,11,0.00,40.00,3,1,7,0.00
2014-1-18,51.0,27.9,22.0,4.0,-4.3,-99.9,32,26,14,0.00,40.00,3,1,6,0.00
2014-1-19,62.0,35.9,24.0,16.0,4.7,1.0,43,29,13,0.00,40.00,5,1,10,0.00
2014-1-20,58.0,28.5,21.0,10.0,2.1,-1.0,45,33,14,0.00,40.00,3,1,8,0.00
2014-1-21,62.0,39.6,25.0,14.0,4.6,-3.0,36,24,9,0.00,40.00,4,1,8,0.00
2014-1-22,62.0,38.9,24.0,11.0,1.4,-8.0,26,21,10,0.00,40.00,5,1,9,0.00
2014-1-23,54.0,30.0,21.0,9.0,-0.6,-9.0,38,27,16,0.00,40.00,3,1,12,0.00
2014-1-24,51.0,38.9,27.0,22.0,9.6,2.0,44,30,22,0.00,40.00,2,0,10,0.00
2014-1-25,55.0,41.3,28.0,34.0,21.2,-99.9,58,47,32,0.00,40.00,5,1,14,0.00
2014-1-26,55.0,38.2,27.0,35.0,25.8,16.0,90,64,33,0.00,40.00,4,1,11,0.00
2014-1-27,58.0,37.4,27.0,31.0,17.8,3.0,82,52,16,0.00,40.00,2,0,11,0.00
2014-1-28,61.0,39.4,27.0,18.0,9.0,3.0,47,30,15,0.00,40.00,6,1,11,0.00
2014-1-29,68.0,45.3,30.0,34.0,24.9,14.0,67,47,28,0.00,40.00,6,2,16,0.00
2014-1-30,53.0,43.2,35.0,33.0,27.5,21.0,87,56,31,0.00,40.00,8,4,23,0.00
2014-1-31,38.0,32.1,25.0,33.0,27.3,11.0,99,83,59,0.00,40.00,9,4,23,0.15
2014-2-1,35.0,23.4,15.0,19.0,8.1,-99.9,87,56,30,0.00,40.00,4,1,16,0.13
2014-2-2,40.0,24.6,9.0,24.0,8.5,0.0,88,53,25,0.00,40.00,8,3,19,0.00
2014-2-3,40.0,28.3,16.0,24.0,18.0,13.0,95,68,39,0.00,40.00,6,2,14,0.00
2014-2-4,43.0,28.3,15.0,25.0,15.4,-8.0,92,66,11,0.00,40.00,7,1,14,0.00
2014-2-5,48.0,30.0,16.0,23.0,11.8,0.0,83,52,13,0.00,40.00,6,2,18,0.00
2014-2-6,35.0,31.1,25.0,32.0,26.2,9.0,99,84,45,0.00,40.00,5,1,16,0.00
2014-2-7,51.0,33.7,23.0,31.0,20.8,8.0,99,69,18,0.00,40.00,6,1,18,0.06
2014-2-8,60.0,44.2,32.0,37.0,32.1,16.0,98,66,39,0.00,40.00,6,2,17,0.01
2014-2-9,63.0,46.7,32.0,33.0,20.3,15.0,90,41,16,0.00,40.00,7,2,17,0.00
2014-2-10,56.0,43.7,33.0,37.0,26.4,19.0,88,53,28,0.00,40.00,6,2,18,0.00
2014-2-11,60.0,35.0,24.0,22.0,14.6,5.0,74,49,12,0.00,40.00,4,1,11,0.00
2014-2-12,69.0,43.9,27.0,26.0,14.4,3.0,44,31,18,0.00,40.00,6,1,16,0.00
2014-2-13,70.0,56.0,35.0,23.0,16.1,5.0,44,23,11,0.00,40.00,6,3,19,0.00
2014-2-14,73.0,48.4,32.0,19.0,6.7,2.0,36,21,8,0.00,40.00,6,3,15,0.00
2014-2-15,68.0,50.2,34.0,19.0,12.2,-99.9,34,23,15,0.00,40.00,6,2,17,0.00
2014-2-16,64.0,48.9,29.0,25.0,17.8,11.0,52,30,19,0.00,40.00,8,2,16,0.00
2014-2-17,60.0,38.3,24.0,27.0,15.2,9.0,59,42,18,0.00,40.00,6,2,14,0.00
2014-2-18,62.0,38.2,25.0,13.0,6.0,0.0,45,28,11,0.00,40.00,4,1,11,0.00
2014-2-19,64.0,43.0,29.0,16.0,6.3,1.0,33,24,8,0.00,40.00,6,2,18,0.00
2014-2-20,62.0,36.9,22.0,18.0,9.1,2.0,42,33,15,0.00,40.00,4,2,12,0.00
2014-2-21,61.0,42.2,28.0,17.0,11.3,6.0,45,30,17,0.00,40.00,6,2,14,0.00
2014-2-22,62.0,39.9,26.0,22.0,13.0,-99.9,52,36,18,0.00,40.00,8,3,14,0.00
2014-2-23,61.0,38.2,23.0,22.0,13.5,9.0,56,40,16,0.00,40.00,6,2,12,0.00
2014-2-24,62.0,38.6,23.0,24.0,16.3,9.0,63,43,20,0.00,40.00,6,2,13,0.00
2014-2-25,61.0,40.5,24.0,27.0,19.3,13.0,67,46,23,0.00,40.00,5,2,13,0.00
2014-2-26,52.0,40.8,32.0,37.0,27.0,14.0,94,60,39,0.00,40.00,6,1,17,0.00
2014-2-27,51.0,41.1,34.0,39.0,31.3,5.0,99,73,24,0.00,40.00,11,5,26,0.23
2014-2-28,43.0,38.0,32.0,43.0,36.3,5.0,99,95,22,0.00,40.00,19,11,41,2.27
2014-3-1,34.0,30.9,29.0,34.0,29.4,-99.9,99,97,90,0.00,40.00,10,5,29,0.01
2014-3-2,41.0,32.1,23.0,37.0,30.5,23.0,99,94,67,0.00,40.00,1,0,8,0.25
2014-3-3,54.0,34.9,23.0,38.0,30.5,23.0,99,87,40,0.00,40.00,3,0,9,0.73
2014-3-4,54.0,38.3,29.0,35.0,27.6,19.0,99,70,33,0.00,40.00,5,1,12,0.01
2014-3-5,61.0,41.1,26.0,33.0,26.7,17.0,99,64,18,0.00,40.00,4,1,11,0.00
2014-3-6,61.0,45.3,32.0,40.0,29.5,12.0,99,57,32,0.00,40.00,7,2,14,0.00
2014-3-7,52.0,39.3,29.0,35.0,20.5,15.0,92,50,26,0.00,40.00,5,2,14,0.00
2014-3-8,59.0,40.6,32.0,18.0,10.2,-99.9,52,32,14,0.00,40.00,4,1,13,0.00
2014-3-9,65.0,45.4,32.0,22.0,12.2,1.0,58,29,9,0.00,40.00,6,2,15,0.00
2014-3-10,61.0,44.0,28.0,23.0,18.2,13.0,62,40,16,0.00,40.00,6,2,14,0.00
2014-3-11,56.0,34.5,26.0,26.0,17.9,12.0,69,53,29,0.00,40.00,2,1,14,0.00
2014-3-12,44.0,31.5,24.0,15.0,10.8,6.0,56,43,26,0.00,40.00,2,0,10,0.00
2014-3-13,50.0,35.8,25.0,22.0,15.0,11.0,68,46,25,0.00,40.00,4,1,16,0.00
2014-3-14,60.0,40.9,28.0,16.0,8.9,-7.0,60,31,6,0.00,40.00,5,1,15,0.00
2014-3-15,61.0,42.0,30.0,21.0,11.1,-99.9,49,32,10,0.00,40.00,5,2,18,0.00
2014-3-16,68.0,44.4,29.0,22.0,12.6,-99.9,54,32,11,0.00,40.00,6,3,14,0.00
2014-3-17,64.0,48.7,34.0,18.0,12.9,7.0,48,28,12,0.00,40.00,8,4,28,0.00
2014-3-18,53.0,34.9,26.0,14.0,9.5,4.0,55,36,18,0.00,40.00,4,1,11,0.00
2014-3-19,61.0,35.9,22.0,15.0,7.1,2.0,44,32,15,0.00,40.00,6,2,12,0.00
2014-3-20,60.0,40.4,24.0,25.0,14.6,9.0,64,39,15,0.00,40.00,8,2,13,0.00
2014-3-21,59.0,39.9,25.0,28.0,18.2,-99.9,72,48,17,0.00,40.00,6,2,13,0.00
2014-3-22,60.0,40.6,28.0,28.0,20.0,-99.9,75,49,26,0.00,40.00,4,2,14,0.00
2014-3-23,61.0,41.8,26.0,31.0,22.3,19.0,88,53,23,0.00,40.00,6,2,12,0.00
2014-3-24,63.0,51.2,35.0,20.0,14.8,11.0,37,24,17,0.00,40.00,4,2,15,0.00
2014-3-25,63.0,43.2,28.0,28.0,16.5,10.0,70,37,15,0.00,40.00,9,2,16,0.00
2014-3-26,38.0,34.4,32.0,36.0,32.5,29.0,99,93,77,0.00,40.00,11,8,28,0.00
2014-3-27,50.0,37.5,28.0,32.0,24.3,9.0,99,66,20,0.00,40.00,7,3,15,0.01
2014-3-28,62.0,41.4,24.0,29.0,19.8,17.0,75,47,20,0.00,40.00,7,2,14,0.01
2014-3-29,61.0,41.8,29.0,30.0,19.9,-99.9,65,45,26,0.00,40.00,8,3,17,0.00
2014-3-30,52.0,40.2,30.0,33.0,22.0,0.0,99,56,12,0.00,40.00,10,5,25,0.01
2014-3-31,49.0,36.2,25.0,28.0,17.7,0.0,87,54,14,0.00,40.00,11,5,22,0.01
2014-4-1,37.0,30.8,27.0,32.0,23.3,-99.9,99,77,53,0.00,40.00,12,7,30,0.07
2014-4-2,37.0,29.5,23.0,27.0,23.8,19.0,99,80,61,0.00,40.00,8,5,24,0.05
2014-4-3,50.0,31.7,19.0,25.0,19.9,14.0,94,67,27,0.00,40.00,6,2,13,0.04
2014-4-4,48.0,36.3,27.0,23.0,14.9,-1.0,78,47,14,0.00,40.00,7,2,15,0.00
2014-4-5,50.0,33.6,19.0,27.0,17.1,-99.9,95,59,19,0.00,40.00,4,1,17,0.00
2014-4-6,58.0,43.3,29.0,21.0,17.5,15.0,61,37,22,0.00,40.00,5,2,15,0.00
2014-4-7,68.0,48.1,32.0,25.0,19.1,14.0,55,34,18,0.00,40.00,6,2,12,0.00
2014-4-8,71.0,49.2,29.0,25.0,16.7,9.0,58,32,13,0.00,40.00,6,2,13,0.00
2014-4-9,70.0,44.8,32.0,10.0,4.7,0.0,32,22,6,0.00,40.00,7,2,16,0.00
2014-4-10,69.0,58.6,41.0,16.0,10.3,2.0,28,16,9,0.00,40.00,8,3,17,0.00
2014-4-11,69.0,52.4,40.0,22.0,16.8,10.0,38,25,16,0.00,40.00,6,2,13,0.00
2014-4-12,61.0,45.8,31.0,33.0,21.3,-99.9,68,42,28,0.00,40.00,7,3,14,0.00
2014-4-13,70.0,46.6,31.0,29.0,23.7,19.0,67,45,20,0.00,40.00,4,2,12,0.00
2014-4-14,64.0,45.1,35.0,22.0,12.4,4.0,54,29,15,0.00,40.00,4,1,12,0.00
2014-4-15,67.0,48.3,31.0,29.0,21.9,13.0,55,38,18,0.00,40.00,6,2,14,0.00
2014-4-16,73.0,50.9,31.0,32.0,21.9,15.0,58,36,15,0.00,40.00,6,2,16,0.00
2014-4-17,70.0,51.5,33.0,34.0,25.9,17.0,55,39,21,0.00,40.00,8,2,15,0.00
2014-4-18,56.0,44.9,40.0,42.0,31.2,20.0,97,61,34,0.00,40.00,3,1,13,0.23
2014-4-19,64.0,46.7,32.0,40.0,32.3,-99.9,99,65,27,0.00,40.00,6,2,13,0.18
2014-4-20,69.0,50.6,33.0,35.0,31.6,27.0,96,56,23,0.00,40.00,6,2,13,0.00
2014-4-21,69.0,51.7,33.0,36.0,30.8,25.0,81,49,25,0.00,40.00,7,2,14,0.00
2014-4-22,59.0,47.5,33.0,32.0,19.9,9.0,57,35,21,0.00,40.00,10,4,20,0.00
2014-4-23,64.0,44.2,29.0,20.0,10.0,1.0,40,26,10,0.00,40.00,8,2,15,0.00
2014-4-24,66.0,46.2,26.0,31.0,21.6,11.0,61,41,19,0.00,40.00,6,2,13,0.00
2014-4-25,57.0,43.5,33.0,33.0,26.3,16.0,82,53,32,0.00,40.00,10,5,27,0.00
2014-4-26,41.0,32.4,25.0,33.0,28.5,25.0,99,87,55,0.00,40.00,8,4,25,0.50
2014-4-28,61.0,49.0,45.0,28.0,20.9,14.0,36,33,28,0.00,40.00,5,1,12,0.00
2014-4-29,61.0,49.6,40.0,16.0,11.2,3.0,33,22,14,0.00,40.00,6,3,21,0.00
2014-4-30,59.0,49.2,40.0,12.0,7.3,4.0,26,18,14,0.00,40.00,7,3,21,0.00
2014-5-1,67.0,50.5,38.0,13.0,7.9,2.0,30,18,10,0.00,40.00,7,3,19,0.00
2014-5-2,74.0,54.2,32.0,28.0,17.4,9.0,46,26,10,0.00,40.00,4,2,14,0.00
2014-5-3,72.0,55.3,36.0,23.0,16.3,-99.9,41,25,11,0.00,40.00,9,5,21,0.00
2014-5-4,70.0,58.4,36.0,27.0,16.5,1.0,39,21,12,0.00,40.00,9,5,16,0.00
2014-5-5,64.0,51.0,38.0,35.0,19.3,4.0,78,34,11,0.00,40.00,9,4,21,0.00
2014-5-6,41.0,36.0,32.0,33.0,29.1,23.0,99,77,56,0.00,40.00,9,5,31,0.00
2014-5-13,64.0,54.8,50.0,14.0,6.1,2.0,15,14,12,0.00,40.00,4,2,20,0.00
2014-5-14,70.0,54.6,41.0,14.0,9.1,4.0,25,16,11,0.00,40.00,5,3,20,0.05
2014-5-15,78.0,52.7,34.0,25.0,15.9,7.0,40,25,12,0.00,40.00,5,2,14,0.05
2014-5-16,75.0,58.6,40.0,27.0,19.7,14.0,40,24,11,0.00,40.00,7,3,16,0.00
2014-5-17,78.0,62.6,48.0,28.0,18.2,-99.9,38,20,12,0.00,40.00,7,4,13,0.00
2014-5-18,69.0,56.1,41.0,31.0,22.2,10.0,37,27,18,0.00,40.00,8,3,22,0.00
2014-5-19,65.0,47.4,36.0,34.0,18.6,-99.9,73,42,10,0.00,40.00,7,2,19,0.00
2014-5-20,51.0,41.5,34.0,30.0,21.9,8.0,76,48,22,0.00,40.00,11,4,23,0.00
2014-5-21,60.0,44.3,28.0,39.0,30.1,23.0,81,60,32,0.00,40.00,6,2,17,0.00
2014-5-22,54.0,39.7,30.0,42.0,32.7,27.0,99,79,37,0.00,40.00,5,1,11,0.24
2014-5-23,67.0,49.7,32.0,44.0,32.5,23.0,99,61,23,0.00,40.00,5,1,16,0.02
2014-5-24,75.0,55.1,37.0,41.0,31.9,-99.9,93,50,19,0.00,40.00,5,2,16,0.00
2014-5-25,77.0,59.1,39.0,40.0,32.8,28.0,68,42,17,0.00,40.00,3,1,13,0.00
2014-5-26,80.0,61.2,42.0,42.0,35.0,29.0,66,42,21,0.00,40.00,6,2,14,0.00
2014-5-27,79.0,61.0,42.0,41.0,31.5,25.0,57,35,20,0.00,40.00,7,2,14,0.00
2014-5-28,74.0,59.7,47.0,35.0,31.0,26.0,51,35,20,0.00,40.00,7,3,17,0.00
2014-5-29,74.0,57.1,41.0,31.0,23.3,11.0,43,29,15,0.00,40.00,6,3,12,0.00
2014-5-30,77.0,56.1,37.0,26.0,16.3,5.0,41,23,11,0.00,40.00,8,4,17,0.00
2014-5-31,72.0,55.2,40.0,20.0,12.7,-99.9,37,20,11,0.00,40.00,8,4,16,0.00
2014-6-1,76.0,54.5,35.0,29.0,10.6,0.0,27,19,7,0.00,40.00,6,3,13,0.00
2014-6-2,73.0,63.4,50.0,20.0,15.9,7.0,20,16,11,0.00,40.00,11,6,22,0.00
2014-6-3,76.0,56.8,32.0,34.0,10.5,-2.0,40,18,6,0.00,40.00,6,3,13,0.00
2014-6-4,76.0,56.0,37.0,21.0,12.5,5.0,31,20,9,0.00,40.00,4,3,15,0.00
2014-6-5,80.0,58.0,34.0,34.0,21.3,6.0,45,27,6,0.00,40.00,5,2,13,0.00
2014-6-6,77.0,57.9,37.0,38.0,22.2,10.0,48,27,13,0.00,40.00,6,2,15,0.00
2014-6-7,82.0,60.5,37.0,32.0,21.0,-99.9,51,27,10,0.00,40.00,4,2,15,0.00
2014-6-8,87.0,65.9,45.0,34.0,26.2,20.0,42,25,12,0.00,40.00,4,2,18,0.00
2014-6-9,83.0,65.1,44.0,44.0,30.8,20.0,49,31,10,0.00,40.00,6,2,16,0.00
2014-6-10,82.0,64.2,47.0,45.0,35.8,15.0,55,38,8,0.00,40.00,7,2,15,0.00
2014-6-11,74.0,58.6,41.0,34.0,26.3,18.0,40,30,19,0.00,40.00,5,3,14,0.00
2014-6-12,75.0,59.5,43.0,39.0,27.1,22.0,46,31,14,0.00,40.00,7,3,15,0.00
2014-6-13,73.0,59.5,43.0,27.0,14.0,-1.0,38,18,9,0.00,40.00,8,3,16,0.00
2014-6-14,76.0,56.1,37.0,39.0,20.4,-99.9,47,28,12,0.00,40.00,5,2,14,0.00
2014-6-15,71.0,55.4,40.0,35.0,21.8,14.0,56,30,12,0.00,40.00,9,4,25,0.00
2014-6-16,67.0,54.0,41.0,29.0,20.8,6.0,48,29,11,0.00,40.00,9,4,23,0.00
2014-6-17,64.0,53.5,42.0,37.0,31.2,17.0,59,43,30,0.00,40.00,10,3,24,0.00
2014-6-18,73.0,55.4,35.0,34.0,21.7,16.0,48,29,15,0.00,40.00,5,2,14,0.00
2014-6-19,81.0,58.2,36.0,36.0,22.2,16.0,46,28,11,0.00,40.00,4,2,13,0.00
2014-6-20,78.0,59.9,39.0,38.0,27.8,18.0,58,32,16,0.00,40.00,6,2,14,0.00
2014-6-21,80.0,61.4,43.0,37.0,25.2,-99.9,51,27,16,0.00,40.00,6,3,13,0.00
2014-6-22,78.0,60.5,41.0,36.0,20.3,5.0,40,23,11,0.00,40.00,6,3,13,0.00
2014-6-23,80.0,58.7,41.0,35.0,23.5,15.0,40,28,13,0.00,40.00,5,2,13,0.00
2014-6-24,82.0,63.8,42.0,43.0,29.2,19.0,43,30,15,0.00,40.00,7,2,17,0.00
2014-6-25,82.0,64.0,45.0,48.0,33.8,25.0,50,35,15,0.00,40.00,6,2,13,0.00
2014-6-26,71.0,60.6,51.0,45.0,35.4,28.0,70,40,27,0.00,40.00,9,3,23,0.00
2014-6-27,81.0,64.2,46.0,43.0,35.9,28.0,68,38,21,0.00,40.00,6,2,16,0.00
2014-6-28,88.0,63.5,45.0,51.0,34.9,-99.9,57,39,18,0.00,40.00,6,2,16,0.00
2014-6-29,89.0,68.5,45.0,47.0,37.4,22.0,55,35,18,0.00,40.00,7,2,17,0.00
2014-6-30,89.0,67.9,48.0,49.0,38.8,31.0,56,37,21,0.00,40.00,5,2,14,0.00
2014-7-1,87.0,71.6,49.0,39.0,27.6,-99.9,43,24,17,0.00,40.00,6,-35,14,0.00
2014-7-2,84.0,69.5,51.0,42.0,34.3,23.0,45,28,17,0.00,40.00,5,3,15,0.00
2014-7-3,83.0,69.1,51.0,43.0,35.8,28.0,44,30,22,0.00,40.00,8,4,18,0.00
2014-7-4,80.0,64.1,50.0,59.0,44.5,28.0,77,51,31,0.00,40.00,7,2,14,0.01
2014-7-5,77.0,61.6,52.0,60.0,47.8,-99.9,91,67,34,0.00,40.00,4,1,12,0.09
2014-7-6,82.0,66.2,48.0,52.0,46.4,41.0,86,53,30,0.00,40.00,5,2,16,0.01
2014-7-7,83.0,66.8,48.0,49.0,42.4,37.0,71,44,27,0.00,40.00,5,2,16,0.00
2014-7-8,84.0,69.9,50.0,52.0,41.7,35.0,66,38,23,0.00,40.00,6,2,14,0.00
2014-7-9,81.0,65.0,49.0,45.0,36.3,23.0,62,38,20,0.00,40.00,6,2,17,0.00
2014-7-10,78.0,64.8,50.0,45.0,34.9,24.0,55,34,23,0.00,40.00,7,3,15,0.00
2014-7-11,78.0,60.9,42.0,44.0,35.6,28.0,61,42,20,0.00,40.00,5,2,16,0.00
2014-7-12,88.0,63.5,43.0,43.0,31.5,22.0,61,34,14,0.00,40.00,5,1,15,0.00
2014-7-13,90.0,71.0,52.0,49.0,37.5,21.0,55,31,18,0.00,40.00,4,1,16,0.00
2014-7-14,81.0,68.3,57.0,54.0,46.0,40.0,68,46,29,0.00,40.00,5,1,13,0.00
2014-7-15,80.0,65.0,50.0,52.0,44.7,37.0,79,52,25,0.00,40.00,6,2,15,0.00
2014-7-16,80.0,64.3,46.0,45.0,37.8,27.0,64,40,22,0.00,40.00,6,2,13,0.00
2014-7-17,85.0,64.9,46.0,39.0,27.8,21.0,46,28,13,0.00,40.00,5,2,13,0.00
2014-7-18,85.0,66.4,49.0,42.0,26.0,17.0,39,23,12,0.00,40.00,5,1,13,0.00
2014-7-19,73.0,63.2,51.0,51.0,36.0,23.0,63,37,27,0.00,40.00,4,1,14,0.00
2014-7-20,79.0,59.3,43.0,48.0,37.8,28.0,69,47,29,0.00,40.00,6,2,15,0.00
2014-7-21,81.0,63.1,44.0,43.0,32.2,26.0,56,34,16,0.00,40.00,5,2,12,0.00
2014-7-22,84.0,66.9,44.0,34.0,22.6,12.0,46,21,9,0.00,40.00,5,2,16,0.00
2014-7-23,88.0,65.3,48.0,43.0,21.2,8.0,39,21,9,0.00,40.00,6,2,14,0.00
2014-7-24,88.0,68.9,50.0,43.0,28.1,10.0,32,22,17,0.00,40.00,7,2,16,0.00
2014-7-25,86.0,71.0,59.0,47.0,37.6,21.0,38,30,22,0.00,40.00,6,2,15,0.00
2014-7-26,84.0,66.9,53.0,55.0,42.3,27.0,61,41,28,0.00,40.00,7,1,13,0.02
2014-7-27,81.0,62.4,52.0,63.0,50.3,43.0,100,70,29,0.00,40.00,2,1,12,0.67
2014-7-28,75.0,62.7,53.0,60.0,52.4,44.0,100,73,42,0.00,40.00,5,1,11,0.03
2014-7-29,80.0,63.6,47.0,52.0,45.9,41.0,99,60,26,0.00,40.00,4,1,12,0.00
2014-7-30,84.0,66.0,48.0,50.0,43.3,41.0,80,49,24,0.00,40.00,5,2,15,0.00
2014-7-31,86.0,63.8,51.0,46.0,40.2,38.0,72,47,23,0.00,40.00,5,2,14,0.00
2014-8-1,83.0,64.4,51.0,54.0,43.8,35.0,67,49,23,0.00,40.00,5,2,12,0.03
2014-8-2,74.0,58.0,51.0,56.0,48.2,42.0,99,71,38,0.00,40.00,3,1,15,0.20
2014-8-3,61.0,55.9,52.0,57.0,54.8,51.0,100,96,80,0.00,40.00,1,0,10,0.66
2014-8-4,70.0,59.2,48.0,51.0,46.5,38.0,100,68,33,0.00,40.00,5,2,13,0.02
2014-8-5,77.0,59.4,39.0,42.0,29.1,20.0,76,39,13,0.00,40.00,5,2,14,0.01
2014-8-6,78.0,55.8,39.0,41.0,29.1,24.0,68,42,17,0.00,40.00,6,2,13,0.00
2014-8-7,80.0,71.8,51.0,39.0,32.2,22.0,44,25,13,0.00,40.00,4,2,13,0.00
2014-8-8,83.0,62.1,40.0,42.0,30.8,24.0,59,36,12,0.00,40.00,5,2,16,0.00
2014-8-9,81.0,61.1,42.0,45.0,33.4,27.0,63,38,16,0.00,40.00,7,2,13,0.00
2014-8-10,83.0,64.8,43.0,46.0,35.5,24.0,55,36,17,0.00,40.00,6,2,13,0.00
2014-8-11,75.0,63.7,51.0,59.0,46.1,41.0,87,55,34,0.00,40.00,5,1,13,0.07
2014-8-12,77.0,63.7,51.0,54.0,50.8,47.0,89,65,40,0.00,40.00,3,1,13,0.01
2014-8-13,77.0,60.5,50.0,55.0,44.8,23.0,99,65,17,0.00,40.00,6,2,16,0.00
2014-8-14,77.0,60.5,47.0,40.0,27.7,21.0,59,31,15,0.00,40.00,9,4,19,0.00
2014-8-15,78.0,62.3,46.0,49.0,35.2,18.0,65,38,25,0.00,40.00,7,4,19,0.00
2014-8-16,83.0,61.8,41.0,47.0,34.2,23.0,57,37,18,0.00,40.00,6,2,14,0.00
2014-8-17,86.0,62.9,45.0,41.0,33.9,25.0,59,38,15,0.00,40.00,5,1,13,0.00
2014-8-18,81.0,63.5,50.0,47.0,32.7,23.0,41,32,23,0.00,40.00,7,2,18,0.00
2014-8-19,75.0,61.3,48.0,46.0,32.0,17.0,72,34,22,0.00,40.00,7,3,16,0.00
2014-8-20,69.0,59.2,46.0,42.0,34.8,20.0,68,42,26,0.00,40.00,11,2,22,0.00
2014-8-21,71.0,56.4,41.0,51.0,42.2,35.0,96,62,33,0.00,40.00,4,1,23,0.12
2014-8-22,74.0,56.1,43.0,55.0,47.0,41.0,99,76,37,0.00,40.00,5,1,15,0.01
2014-8-23,77.0,59.4,44.0,38.0,29.5,18.0,54,33,18,0.00,40.00,6,3,13,0.01
2014-8-24,81.0,57.9,42.0,34.0,25.0,16.0,44,30,16,0.00,40.00,5,2,11,0.00
2014-8-25,73.0,61.0,52.0,37.0,31.5,23.0,50,33,24,0.00,40.00,8,2,18,0.00
2014-8-26,73.0,61.8,52.0,47.0,41.8,31.0,72,49,33,0.00,40.00,8,2,17,0.00
2014-8-27,80.0,61.4,48.0,45.0,41.6,35.0,79,53,25,0.00,40.00,7,2,16,0.00
2014-8-28,84.0,60.8,42.0,42.0,35.8,30.0,67,44,16,0.00,40.00,4,1,12,0.00
2014-8-29,85.0,68.6,46.0,39.0,32.4,22.0,59,31,11,0.00,40.00,5,2,12,0.00
2014-8-30,84.0,64.3,45.0,40.0,29.0,21.0,45,28,12,0.00,40.00,6,2,14,0.00
2014-8-31,83.0,66.7,50.0,43.0,31.2,23.0,43,29,13,0.00,40.00,6,3,14,0.00
2014-9-1,85.0,63.3,44.0,39.0,27.0,19.0,45,28,13,0.00,40.00,4,1,11,0.00
2014-9-2,85.0,64.6,44.0,41.0,30.4,23.0,47,30,13,0.00,40.00,5,2,12,0.00
2014-9-3,83.0,63.6,46.0,35.0,22.9,13.0,34,23,9,0.00,40.00,6,3,15,0.00
2014-9-4,82.0,62.5,43.0,33.0,21.8,12.0,32,22,10,0.00,40.00,6,2,14,0.00
2014-9-5,81.0,62.5,42.0,43.0,27.6,10.0,52,29,12,0.00,40.00,5,2,16,0.00
2014-9-6,79.0,60.2,44.0,51.0,42.8,34.0,70,53,32,0.00,40.00,2,0,12,0.00
2014-9-7,74.0,58.9,46.0,60.0,50.7,41.0,99,76,47,0.00,40.00,4,1,11,0.10
2014-9-8,69.0,59.6,53.0,60.0,55.5,53.0,100,87,64,0.00,40.00,5,1,11,0.03
2014-9-9,75.0,62.2,44.0,58.0,47.7,27.0,99,65,26,0.00,40.00,6,2,17,0.01
2014-9-10,78.0,54.2,38.0,37.0,29.9,21.0,58,43,19,0.00,40.00,3,1,14,0.00
2014-9-11,79.0,51.3,39.0,41.0,33.1,28.0,69,54,23,0.00,40.00,2,1,10,0.00
2014-9-12,80.0,58.2,41.0,42.0,33.5,28.0,64,43,22,0.00,40.00,5,1,13,0.00
2014-9-13,79.0,60.4,44.0,42.0,33.4,29.0,57,38,21,0.00,40.00,3,1,19,0.00
2014-9-14,80.0,61.8,46.0,47.0,38.3,31.0,63,44,23,0.00,40.00,4,1,17,0.00
2014-9-15,79.0,60.5,46.0,49.0,41.5,39.0,76,54,27,0.00,40.00,3,1,10,0.00
2014-9-16,80.0,61.3,48.0,55.0,45.6,39.0,77,59,30,0.00,40.00,3,1,11,0.00
2014-9-17,78.0,60.5,47.0,56.0,49.7,45.0,99,72,35,0.00,40.00,3,0,9,0.00
2014-9-18,75.0,58.5,46.0,45.0,35.6,17.0,80,50,12,0.00,40.00,8,3,18,0.00
2014-9-19,72.0,54.4,42.0,46.0,40.0,35.0,97,64,28,0.00,40.00,4,1,12,0.00
2014-9-20,76.0,55.9,39.0,49.0,39.7,34.0,87,57,32,0.00,40.00,7,2,20,0.00
2014-9-21,75.0,54.7,37.0,41.0,34.9,28.0,79,53,25,0.00,40.00,4,1,13,0.00
2014-9-22,78.0,55.8,37.0,42.0,32.5,25.0,72,46,21,0.00,40.00,5,1,13,0.00
2014-9-23,79.0,56.4,36.0,35.0,29.2,21.0,64,40,18,0.00,40.00,5,2,12,0.00
2014-9-24,79.0,60.1,42.0,48.0,37.5,24.0,61,44,30,0.00,40.00,7,2,15,0.00
2014-9-25,75.0,63.1,52.0,52.0,46.7,42.0,77,57,36,0.00,40.00,10,3,22,0.00
2014-9-26,71.0,60.0,50.0,50.0,45.7,28.0,78,61,40,0.00,40.00,11,5,23,0.00
2014-9-27,57.0,48.2,37.0,37.0,22.5,2.0,76,39,21,0.00,40.00,9,4,27,0.00
2014-9-28,59.0,45.0,32.0,38.0,32.7,29.0,94,66,34,0.00,40.00,7,2,15,0.00
2014-9-29,67.0,41.8,31.0,37.0,30.4,23.0,94,69,26,0.00,40.00,5,1,12,0.00
2014-9-30,73.0,51.2,32.0,35.0,25.3,15.0,68,41,14,0.00,40.00,7,2,13,0.00
2014-10-1,66.0,47.5,33.0,32.0,25.5,18.0,59,44,25,0.00,40.00,5,1,13,0.00
2014-10-2,65.0,41.8,33.0,22.0,11.7,-3.0,45,31,13,0.00,40.00,3,0,8,0.00
2014-10-3,69.0,41.8,31.0,10.0,2.2,-4.0,24,19,10,0.00,40.00,3,1,8,0.00
2014-10-4,78.0,49.8,40.0,24.0,13.9,10.0,37,24,12,0.00,40.00,4,2,11,0.00
2014-10-5,78.0,49.0,36.0,31.0,14.2,7.0,40,26,12,0.00,40.00,5,1,13,0.00
2014-10-6,74.0,48.5,37.0,29.0,17.7,7.0,39,30,19,0.00,40.00,4,1,10,0.00
2014-10-7,75.0,54.7,42.0,38.0,25.3,20.0,47,34,18,0.00,40.00,5,1,13,0.00
2014-10-8,72.0,48.5,37.0,36.0,29.1,24.0,62,49,23,0.00,40.00,4,0,15,0.00
2014-10-9,76.0,54.7,39.0,34.0,25.6,16.0,53,36,15,0.00,40.00,6,2,15,0.00
2014-10-10,74.0,55.8,35.0,29.0,23.3,13.0,48,31,16,0.00,40.00,7,2,15,0.00
2014-10-11,74.0,46.6,35.0,33.0,23.1,20.0,65,42,16,0.00,40.00,3,1,11,0.00
2014-10-12,73.0,50.8,37.0,29.0,16.2,1.0,50,30,6,0.00,40.00,5,2,18,0.00
2014-10-13,65.0,45.4,38.0,15.0,9.6,4.0,31,24,12,0.00,40.00,4,2,6,0.00
2014-10-14,74.0,53.1,35.0,36.0,22.8,7.0,56,33,14,0.00,40.00,5,2,13,0.00
2014-10-15,72.0,58.2,42.0,34.0,17.5,6.0,40,22,9,0.00,40.00,5,2,14,0.00
2014-10-16,75.0,56.6,32.0,16.0,4.0,-7.0,21,13,6,0.00,40.00,4,2,12,0.00
2014-10-17,70.0,50.0,33.0,24.0,8.9,-11.0,37,20,11,0.00,40.00,5,1,13,0.00
2014-10-18,65.0,47.2,40.0,34.0,22.2,10.0,61,38,18,0.00,40.00,3,1,8,0.00
2014-10-19,69.0,47.5,36.0,40.0,30.9,25.0,78,56,29,0.00,40.00,4,1,13,0.00
2014-10-20,69.0,49.5,34.0,41.0,30.9,24.0,83,52,29,0.00,40.00,5,1,13,0.00
2014-10-21,71.0,47.7,33.0,30.0,21.1,8.0,73,41,10,0.00,40.00,6,2,12,0.00
2014-10-22,73.0,48.5,34.0,26.0,16.8,9.0,42,30,16,0.00,40.00,5,1,10,0.00
2014-10-23,76.0,52.3,34.0,27.0,18.3,12.0,42,28,14,0.00,40.00,6,2,11,0.00
2014-10-24,76.0,54.2,39.0,34.0,25.4,17.0,55,35,19,0.00,40.00,5,2,13,0.00
2014-10-25,65.0,52.5,40.0,41.0,37.1,30.0,78,57,41,0.00,40.00,10,3,26,0.00
2014-10-26,68.0,46.6,33.0,38.0,24.8,7.0,91,51,13,0.00,40.00,4,2,12,0.00
2014-10-27,55.0,35.2,28.0,30.0,15.5,7.0,57,45,35,0.00,40.00,3,1,8,0.00
2014-10-28,62.0,38.1,28.0,30.0,18.8,14.0,62,47,25,0.00,40.00,2,0,6,0.00
2014-10-29,69.0,38.5,30.0,25.0,15.9,11.0,53,41,16,0.00,40.00,3,1,10,0.00
2014-10-30,71.0,46.0,31.0,30.0,14.5,-1.0,41,30,9,0.00,40.00,5,1,11,0.00
2014-10-31,67.0,48.4,36.0,38.0,28.3,16.0,93,49,27,0.00,40.00,14,2,30,0.00
2014-11-1,42.0,35.1,31.0,40.0,32.9,26.0,99,91,83,0.00,40.00,14,7,35,0.33
2014-11-2,49.0,33.6,26.0,32.0,26.9,22.0,98,79,39,0.00,40.00,2,0,10,0.01
2014-11-3,48.0,34.0,25.0,23.0,13.0,-3.0,93,50,16,0.00,40.00,5,2,20,0.00
2014-11-4,52.0,35.8,29.0,9.0,2.7,-6.0,37,26,11,0.00,40.00,4,1,13,0.00
2014-11-5,61.0,42.1,33.0,20.0,9.7,1.0,47,27,18,0.00,40.00,2,0,10,0.00
2014-11-6,69.0,41.7,31.0,28.0,20.9,18.0,65,47,17,0.00,40.00,5,1,11,0.00
2014-11-7,74.0,40.1,30.0,23.0,18.0,14.0,61,45,15,0.00,40.00,3,1,8,0.00
2014-11-8,71.0,40.5,32.0,25.0,17.6,14.0,50,40,16,0.00,40.00,4,0,11,0.00
2014-11-9,71.0,46.7,32.0,27.0,20.4,14.0,58,38,17,0.00,40.00,7,2,11,0.00
2014-11-10,70.0,49.1,34.0,30.0,20.1,11.0,46,33,19,0.00,40.00,4,2,10,0.00
2014-11-11,69.0,46.0,32.0,17.0,12.7,8.0,44,29,12,0.00,40.00,6,2,14,0.00
2014-11-12,68.0,45.8,34.0,16.0,10.7,4.0,38,24,11,0.00,40.00,7,2,15,0.00
2014-11-13,64.0,46.8,36.0,42.0,29.7,11.0,84,53,34,0.00,40.00,4,1,13,0.00
2014-11-14,65.0,44.8,32.0,29.0,18.0,10.0,69,37,15,0.00,40.00,5,1,18,0.00
2014-11-15,59.0,43.5,31.0,29.0,15.6,5.0,45,32,19,0.00,40.00,6,2,18,0.00
2014-11-16,50.0,37.3,30.0,24.0,-3.2,-28.0,68,25,4,0.00,40.00,4,1,13,0.00
2014-11-17,56.0,39.0,26.0,9.0,2.1,-7.0,31,22,13,0.00,40.00,3,0,12,0.00
2014-11-18,63.0,40.8,25.0,12.0,1.7,-5.0,39,21,8,0.00,40.00,4,0,9,0.00
2014-11-19,58.0,41.3,28.0,21.0,5.2,-10.0,51,24,9,0.00,40.00,4,1,15,0.00
2014-11-20,60.0,38.8,25.0,31.0,21.3,11.0,82,54,14,0.00,40.00,4,1,12,0.00
2014-11-21,51.0,36.7,28.0,34.0,28.5,22.0,97,76,39,0.00,40.00,3,0,11,0.27
2014-11-22,59.0,40.6,25.0,34.0,25.8,13.0,87,58,28,0.00,40.00,6,1,18,0.06
2014-11-23,52.0,38.5,25.0,31.0,9.2,-10.0,81,37,8,0.00,40.00,6,2,17,0.00
2014-11-24,51.0,30.3,21.0,11.0,3.2,-3.0,47,33,15,0.00,40.00,4,1,15,0.00
2014-11-25,63.0,34.8,21.0,14.0,3.9,-2.0,36,29,11,0.00,40.00,3,1,13,0.00
2014-11-26,66.0,42.4,33.0,17.0,11.5,5.0,45,30,11,0.00,40.00,4,1,8,0.00
2014-11-27,73.0,46.4,31.0,15.0,6.9,4.0,36,23,8,0.00,40.00,5,1,11,0.00
2014-11-28,67.0,40.5,32.0,12.0,6.4,3.0,32,26,11,0.00,40.00,5,2,13,0.00
2014-11-29,59.0,43.5,31.0,19.0,12.0,-7.0,42,28,14,0.00,40.00,8,3,19,0.00
2014-11-30,45.0,38.6,33.0,40.0,25.2,-11.0,99,68,12,0.00,40.00,15,2,27,0.01
2014-12-1,53.0,36.4,25.0,40.0,24.2,9.0,99,69,24,0.00,40.00,1,0,7,0.01
2014-12-2,48.0,43.9,39.0,48.0,34.8,8.0,99,77,23,0.00,40.00,11,2,29,2.13
2014-12-3,49.0,44.8,41.0,48.0,44.0,41.0,99,97,83,0.00,40.00,6,2,15,0.89
2014-12-4,52.0,41.3,27.0,45.0,36.0,26.0,99,84,41,0.00,40.00,3,1,13,0.76
2014-12-5,48.0,35.7,26.0,36.0,29.8,25.0,99,81,46,0.00,40.00,2,0,9,0.01
2014-12-6,51.0,34.4,29.0,37.0,32.1,29.0,99,90,49,0.00,40.00,1,0,7,0.01
2014-12-7,60.0,37.1,26.0,36.0,27.7,23.0,99,75,27,0.00,40.00,3,1,8,0.00
2014-12-8,61.0,36.3,29.0,34.0,23.7,19.0,87,66,20,0.00,40.00,3,1,8,0.00
2014-12-9,61.0,31.4,25.0,25.0,19.0,16.0,78,61,17,0.00,40.00,3,1,7,0.00
2014-12-10,61.0,39.6,27.0,31.0,20.0,13.0,64,45,15,0.00,40.00,3,1,11,0.00
2014-12-11,57.0,44.1,35.0,27.0,21.1,13.0,69,40,30,0.00,40.00,11,3,27,0.00
2014-12-12,44.0,34.9,31.0,36.0,31.5,25.0,99,89,47,0.00,40.00,17,6,33,0.09
2014-12-13,40.0,28.7,18.0,30.0,26.6,15.0,99,92,60,0.00,40.00,3,1,11,0.01
2014-12-14,45.0,22.9,14.0,32.0,20.0,11.0,98,89,53,0.00,40.00,0,0,4,0.30
2014-12-15,44.0,29.7,21.0,27.0,22.3,19.0,93,77,39,0.00,40.00,5,1,11,0.17
2014-12-16,39.0,32.8,27.0,34.0,27.7,16.0,99,82,57,0.00,40.00,4,0,19,0.18
2014-12-17,40.0,32.3,27.0,32.0,29.1,23.0,99,88,66,0.00,40.00,4,1,13,0.08
2014-12-18,42.0,25.9,18.0,28.0,22.9,16.0,98,90,53,0.00,40.00,2,0,8,0.25
2014-12-19,52.0,28.0,21.0,28.0,21.9,18.0,95,80,39,0.00,40.00,4,0,9,0.20
2014-12-20,47.0,32.7,25.0,35.0,26.7,20.0,98,77,52,0.00,40.00,5,1,12,0.01
2014-12-21,60.0,40.1,30.0,36.0,30.5,26.0,99,75,34,0.00,40.00,2,0,9,0.01
2014-12-22,65.0,46.5,35.0,26.0,20.7,14.0,67,38,20,0.00,40.00,4,1,21,0.00
2014-12-23,57.0,43.0,31.0,27.0,21.3,17.0,65,43,31,0.00,40.00,4,1,14,0.00
2014-12-24,55.0,38.4,27.0,29.0,23.1,20.0,77,57,27,0.00,40.00,7,2,20,0.00
2014-12-25,37.0,28.9,22.0,29.0,12.4,0.0,87,52,26,0.00,40.00,7,2,20,0.00
2014-12-26,35.0,21.8,14.0,7.0,4.0,-3.0,65,47,25,0.00,40.00,6,2,22,0.00
2014-12-27,39.0,24.5,17.0,6.0,1.0,-13.0,58,37,11,0.00,40.00,6,1,17,0.00
2014-12-28,52.0,29.9,22.0,14.0,1.6,-13.0,58,32,9,0.00,40.00,4,1,10,0.00
2014-12-29,55.0,38.7,25.0,15.0,-2.6,-14.0,66,22,7,0.00,40.00,5,1,17,0.00
2014-12-30,34.0,25.4,16.0,26.0,9.9,-1.0,83,57,24,0.00,40.00,6,1,17,0.00
2014-12-31,19.0,13.9,8.0,11.0,3.7,-1.0,81,64,41,0.00,40.00,5,1,17,0.00
2015-1-1,26.0,12.3,1.0,5.0,-0.9,-5.0,75,58,27,0.00,40.00,4,1,11,0.00
2015-1-2,34.0,15.6,8.0,14.0,6.1,1.0,77,67,35,0.00,40.00,4,1,6,0.06